createdAt,value
2019-05-02T00:03:27.432Z,46.30
2019-05-02T00:08:34.412Z,46.30
2019-05-02T00:13:40.473Z,46.30
2019-05-02T00:18:46.295Z,46.30
2019-05-02T00:23:51.932Z,46.30
2019-05-02T00:34:15.253Z,46.10
2019-05-02T00:39:20.893Z,46.20
2019-05-02T00:44:27.303Z,46.10
2019-05-02T00:49:35.562Z,46.10
2019-05-02T00:54:41.934Z,46.10
2019-05-02T00:59:47.631Z,46.10
2019-05-02T01:04:54.271Z,46.00
2019-05-02T01:10:00.252Z,45.90
2019-05-02T01:15:08.432Z,45.90
2019-05-02T01:20:14.573Z,45.90
2019-05-02T01:25:20.213Z,45.90
2019-05-02T01:30:42.351Z,45.90
2019-05-02T01:35:53.694Z,45.90
2019-05-02T01:40:59.833Z,45.90
2019-05-02T01:46:05.982Z,45.90
2019-05-02T01:51:12.563Z,45.90
2019-05-02T01:56:18.552Z,45.90
2019-05-02T02:01:24.193Z,45.90
2019-05-02T02:06:30.234Z,45.80
2019-05-02T02:11:36.223Z,45.70
2019-05-02T02:16:41.932Z,45.80
2019-05-02T02:22:15.523Z,45.70
2019-05-02T02:27:24.638Z,45.70
2019-05-02T02:32:29.312Z,45.70
2019-05-02T02:37:35.985Z,45.70
2019-05-02T02:42:42.175Z,45.60
2019-05-02T02:47:52.945Z,46.30
2019-05-02T02:52:56.033Z,45.60
2019-05-02T02:58:04.869Z,45.60
2019-05-02T03:03:10.254Z,45.60
2019-05-02T03:08:16.785Z,45.60
2019-05-02T03:13:52.756Z,45.60
2019-05-02T03:18:52.474Z,45.60
2019-05-02T03:24:03.448Z,45.50
2019-05-02T03:29:06.544Z,45.60
2019-05-02T03:34:12.256Z,45.50
2019-05-02T03:39:18.583Z,45.40
2019-05-02T03:44:26.276Z,45.60
2019-05-02T03:49:33.224Z,45.50
2019-05-02T03:54:48.393Z,45.40
2019-05-02T03:59:47.866Z,45.50
2019-05-02T04:05:00.016Z,45.50
2019-05-02T04:10:02.405Z,45.50
2019-05-02T04:15:09.735Z,45.40
2019-05-02T04:20:15.926Z,45.40
2019-05-02T04:25:27.886Z,45.40
2019-05-02T04:30:30.314Z,45.50
2019-05-02T04:35:36.544Z,45.40
2019-05-02T04:40:46.443Z,45.50
2019-05-02T04:45:56.171Z,45.40
2019-05-02T04:51:08.692Z,45.30
2019-05-02T04:56:10.398Z,45.40
2019-05-02T05:01:14.875Z,45.40
2019-05-02T05:06:20.943Z,45.40
2019-05-02T05:11:27.452Z,45.40
2019-05-02T05:16:33.773Z,45.40
2019-05-02T05:21:39.873Z,45.40
2019-05-02T05:26:48.573Z,45.30
2019-05-02T05:31:55.086Z,45.40
2019-05-02T05:37:03.542Z,45.40
2019-05-02T05:42:10.777Z,45.40
2019-05-02T05:47:21.149Z,45.70
2019-05-02T05:52:27.052Z,45.70
2019-05-02T05:57:32.553Z,45.90
2019-05-02T06:02:52.838Z,46.30
2019-05-02T06:07:47.427Z,46.10
2019-05-02T06:12:53.603Z,46.90
2019-05-02T06:18:00.054Z,46.60
2019-05-02T06:23:07.573Z,46.20
2019-05-02T06:28:13.322Z,46.30
2019-05-02T06:33:18.584Z,34.60
2019-05-02T06:38:24.884Z,33.50
2019-05-02T06:43:30.615Z,33.50
2019-05-02T06:48:36.693Z,34.30
2019-05-02T06:53:46.966Z,34.50
2019-05-02T06:58:50.677Z,34.30
2019-05-02T07:03:56.992Z,36.30
2019-05-02T07:09:03.485Z,40.10
2019-05-02T07:14:13.506Z,42.30
2019-05-02T07:19:36.152Z,43.10
2019-05-02T07:24:42.473Z,43.20
2019-05-02T07:29:52.243Z,43.50
2019-05-02T07:34:56.223Z,43.40
2019-05-02T07:40:02.343Z,43.60
2019-05-02T07:45:09.407Z,43.40
2019-05-02T07:50:16.623Z,43.60
2019-05-02T07:55:22.742Z,43.70
2019-05-02T08:00:32.040Z,43.80
2019-05-02T08:05:36.722Z,43.80
2019-05-02T08:10:43.013Z,44.10
2019-05-02T08:15:50.794Z,44.10
2019-05-02T08:20:57.418Z,44.10
2019-05-02T08:26:03.676Z,35.20
2019-05-02T08:31:13.672Z,34.50
2019-05-02T08:36:17.295Z,33.00
2019-05-02T08:41:23.642Z,34.00
2019-05-02T08:46:29.933Z,33.50
2019-05-02T08:51:35.733Z,35.20
2019-05-02T08:56:42.153Z,35.60
2019-05-02T09:01:49.413Z,36.00
2019-05-02T09:06:58.912Z,36.30
2019-05-02T09:12:12.221Z,38.20
2019-05-02T09:17:16.426Z,39.00
2019-05-02T09:22:22.175Z,39.50
2019-05-02T09:27:28.003Z,39.90
2019-05-02T09:32:37.065Z,41.10
2019-05-02T09:37:42.114Z,41.90
2019-05-02T09:42:55.948Z,42.40
2019-05-02T09:48:04.554Z,42.70
2019-05-02T09:53:03.794Z,43.00
2019-05-02T09:58:10.376Z,43.10
2019-05-02T10:03:18.733Z,43.50
2019-05-02T10:08:25.195Z,43.60
2019-05-02T10:13:31.893Z,41.60
2019-05-02T10:18:39.813Z,41.50
2019-05-02T10:23:45.535Z,42.00
2019-05-02T10:28:53.305Z,41.60
2019-05-02T10:34:02.218Z,41.20
2019-05-02T10:39:11.852Z,41.30
2019-05-02T10:44:17.373Z,40.90
2019-05-02T10:49:31.931Z,40.80
2019-05-02T10:54:37.643Z,41.00
2019-05-02T10:59:43.373Z,40.90
2019-05-02T11:04:53.563Z,41.10
2019-05-02T11:10:05.045Z,40.70
2019-05-02T11:15:29.923Z,40.50
2019-05-02T11:20:36.601Z,41.20
2019-05-02T11:25:42.458Z,41.70
2019-05-02T11:30:48.281Z,42.50
2019-05-02T11:35:54.893Z,42.30
2019-05-02T11:41:02.756Z,42.40
2019-05-02T11:46:09.194Z,42.40
2019-05-02T11:51:16.504Z,42.50
2019-05-02T11:56:22.662Z,42.80
2019-05-02T12:01:38.927Z,43.00
2019-05-02T12:06:37.492Z,43.40
2019-05-02T12:11:47.521Z,43.40
2019-05-02T12:16:52.714Z,43.30
2019-05-02T12:21:59.284Z,43.30
2019-05-02T12:27:05.943Z,43.00
2019-05-02T12:32:15.489Z,43.00
2019-05-02T12:37:21.940Z,43.20
2019-05-02T12:42:32.151Z,44.10
2019-05-02T12:47:38.112Z,44.70
2019-05-02T12:52:43.922Z,44.70
2019-05-02T12:57:52.344Z,44.70
2019-05-02T13:03:09.322Z,44.50
2019-05-02T13:08:15.432Z,44.50
2019-05-02T13:13:21.813Z,44.70
2019-05-02T13:18:34.614Z,44.70
2019-05-02T13:24:07.231Z,45.00
2019-05-02T13:29:11.839Z,45.30
2019-05-02T13:34:25.534Z,45.30
2019-05-02T13:39:41.849Z,44.90
2019-05-02T13:44:58.372Z,44.90
2019-05-02T13:50:05.013Z,44.80
2019-05-02T13:55:12.473Z,45.00
2019-05-02T14:00:25.874Z,44.50
2019-05-02T14:05:31.844Z,44.50
2019-05-02T14:10:41.096Z,44.60
2019-05-02T14:15:46.823Z,44.80
2019-05-02T14:20:53.332Z,44.80
2019-05-02T14:25:59.493Z,45.00
2019-05-02T14:31:05.411Z,45.00
2019-05-02T14:36:11.724Z,45.00
2019-05-02T14:41:30.113Z,45.20
2019-05-02T14:46:37.530Z,45.30
2019-05-02T14:51:41.777Z,45.30
2019-05-02T14:57:17.273Z,45.40
2019-05-02T15:02:54.092Z,45.40
2019-05-02T15:08:02.675Z,45.40
2019-05-02T15:13:07.045Z,45.60
2019-05-02T15:18:17.261Z,45.20
2019-05-02T15:23:22.634Z,45.70
2019-05-02T15:28:30.290Z,45.70
2019-05-02T15:33:42.130Z,45.80
2019-05-02T15:38:48.043Z,45.70
2019-05-02T15:43:53.603Z,45.90
2019-05-02T15:49:01.775Z,45.90
2019-05-02T15:54:08.936Z,43.30
2019-05-02T15:59:16.721Z,45.20
2019-05-02T16:04:25.806Z,45.60
2019-05-02T16:09:32.978Z,45.80
2019-05-02T16:14:39.222Z,45.90
2019-05-02T16:19:52.357Z,46.00
2019-05-02T16:24:58.043Z,46.00
2019-05-02T16:30:07.517Z,46.00
2019-05-02T16:35:17.015Z,45.90
2019-05-02T16:40:22.146Z,46.00
2019-05-02T16:45:28.022Z,46.00
2019-05-02T16:50:36.946Z,46.20
2019-05-02T16:55:44.053Z,46.60
2019-05-02T17:00:52.650Z,47.10
2019-05-02T17:05:58.822Z,46.80
2019-05-02T17:11:15.446Z,47.00
2019-05-02T17:16:22.082Z,47.00
2019-05-02T17:21:33.736Z,47.00
2019-05-02T17:26:35.652Z,47.10
2019-05-02T17:31:42.701Z,47.20
2019-05-02T17:36:48.763Z,47.20
2019-05-02T17:41:55.502Z,47.40
2019-05-02T17:47:02.732Z,46.90
2019-05-02T17:52:26.930Z,46.80
2019-05-02T17:57:33.505Z,46.80
2019-05-02T18:02:42.266Z,46.70
2019-05-02T18:07:48.342Z,46.80
2019-05-02T18:12:58.794Z,47.10
2019-05-02T18:18:06.487Z,46.60
2019-05-02T18:23:12.245Z,46.60
2019-05-02T18:28:25.903Z,46.60
2019-05-02T18:33:30.794Z,46.60
2019-05-02T18:38:37.624Z,46.80
2019-05-02T18:43:45.185Z,46.90
2019-05-02T18:48:51.923Z,46.90
2019-05-02T18:54:03.071Z,47.10
2019-05-02T18:59:05.592Z,47.10
2019-05-02T19:04:13.240Z,47.00
2019-05-02T19:09:25.009Z,46.90
2019-05-02T19:14:28.294Z,46.80
2019-05-02T19:19:36.816Z,46.80
2019-05-02T19:24:42.887Z,46.90
2019-05-02T19:29:49.530Z,46.90
2019-05-02T19:35:03.257Z,46.90
2019-05-02T19:40:06.884Z,47.10
2019-05-02T19:46:38.758Z,47.10
2019-05-02T19:51:56.298Z,47.20
2019-05-02T20:04:14.915Z,47.20
2019-05-02T20:10:18.191Z,47.30
2019-05-02T20:15:30.314Z,47.20
2019-05-02T20:20:52.090Z,47.10
2019-05-02T20:26:00.214Z,47.10
2019-05-02T20:31:08.314Z,47.20
2019-05-02T20:36:16.575Z,47.20
2019-05-02T20:41:24.435Z,47.10
2019-05-02T20:46:32.956Z,47.20
2019-05-02T20:51:42.382Z,47.10
2019-05-02T20:56:51.821Z,47.10
2019-05-02T21:01:58.974Z,47.10
2019-05-02T21:07:34.853Z,47.10
2019-05-02T21:12:42.934Z,47.70
2019-05-02T21:17:50.914Z,47.70
2019-05-02T21:22:58.715Z,47.10
2019-05-02T21:28:07.096Z,47.10
2019-05-02T21:33:36.536Z,47.00
2019-05-02T21:38:43.996Z,47.10
2019-05-02T21:43:51.836Z,47.00
2019-05-02T21:49:00.196Z,47.10
2019-05-02T21:54:32.676Z,47.10
2019-05-02T21:59:42.097Z,47.10
2019-05-02T22:04:50.074Z,47.00
2019-05-02T22:09:58.078Z,46.90
2019-05-02T22:15:06.136Z,47.10
2019-05-02T22:20:14.277Z,47.10
2019-05-02T22:25:22.175Z,47.10
2019-05-02T22:30:30.582Z,47.10
2019-05-02T22:35:43.163Z,47.10
2019-05-02T22:40:51.421Z,47.00
2019-05-02T22:46:07.233Z,47.10
2019-05-02T22:51:25.216Z,47.10
2019-05-02T22:56:59.254Z,47.00
2019-05-02T23:03:41.759Z,47.00
2019-05-02T23:08:55.617Z,47.00
2019-05-02T23:14:12.274Z,47.00
2019-05-02T23:19:27.756Z,47.10
2019-05-02T23:25:22.628Z,47.00
2019-05-02T23:30:38.195Z,47.00
2019-05-02T23:36:32.837Z,47.10
2019-05-02T23:42:24.799Z,47.70
2019-05-02T23:47:56.517Z,47.00
2019-05-02T23:53:31.550Z,47.10
2019-05-02T23:58:49.175Z,47.00
